Time;durP1;ratioP1;P1;durP2;ratioP2;P2;SDS_P1;SDS_P2;PMS_P1;PMS_P2;Temp;Humidity;BMP_temperature;BMP_pressure;BME280_temperature;BME280_humidity;BME280_pressure;Samples;Min_cycle;Max_cycle;Signal;HPM_P1;HPM_P2
2021/12/18 00:00:51;;;;;;;6.13;2.88;;;9.30;99.90;;;;;;4976853;28;20081;-87
2021/12/18 00:03:17;;;;;;;7.72;3.58;;;9.30;99.90;;;;;;4976168;28;20061;-87
2021/12/18 00:05:44;;;;;;;7.20;3.63;;;9.40;99.90;;;;;;4957991;28;20047;-88
2021/12/18 00:08:10;;;;;;;9.23;4.10;;;9.40;99.90;;;;;;4975244;28;20030;-87
2021/12/18 00:10:36;;;;;;;7.88;3.88;;;9.40;99.90;;;;;;4976297;28;20096;-87
2021/12/18 00:13:02;;;;;;;7.25;3.70;;;9.40;99.90;;;;;;4956525;28;20038;-87
2021/12/18 00:15:29;;;;;;;9.05;4.32;;;9.40;99.90;;;;;;4957804;28;20039;-87
2021/12/18 00:17:55;;;;;;;7.40;3.85;;;9.40;99.90;;;;;;4959042;28;20045;-88
2021/12/18 00:20:21;;;;;;;7.15;3.78;;;9.40;99.90;;;;;;4976155;28;20110;-86
2021/12/18 00:22:47;;;;;;;8.13;4.05;;;9.40;99.90;;;;;;4956368;28;20053;-87
2021/12/18 00:25:13;;;;;;;7.07;3.92;;;9.40;99.90;;;;;;4954430;28;20089;-87
2021/12/18 00:27:39;;;;;;;7.32;3.90;;;9.40;99.90;;;;;;4971008;28;20129;-87
2021/12/18 00:30:07;;;;;;;8.73;3.55;;;9.40;99.90;;;;;;4975761;28;20035;-86
2021/12/18 00:32:33;;;;;;;7.82;3.78;;;9.40;99.90;;;;;;4975446;28;20391;-87
2021/12/18 00:34:58;;;;;;;7.22;3.50;;;9.40;99.90;;;;;;4975906;28;20037;-87
2021/12/18 00:37:24;;;;;;;8.57;4.13;;;9.50;99.90;;;;;;4975932;28;20529;-87
2021/12/18 00:39:58;;;;;;;8.70;3.60;;;9.40;99.90;;;;;;4958253;28;20022;-85
2021/12/18 00:44:50;;;;;;;10.45;4.25;;;9.40;99.90;;;;;;4975750;28;20100;-86
2021/12/18 00:47:15;;;;;;;7.22;3.88;;;9.30;99.90;;;;;;4957607;28;20446;-87
2021/12/18 00:49:41;;;;;;;8.52;4.38;;;9.30;99.90;;;;;;4975595;28;20027;-87
2021/12/18 00:52:07;;;;;;;8.60;4.55;;;9.30;99.90;;;;;;4975295;28;20029;-88
2021/12/18 00:54:34;;;;;;;6.70;3.95;;;9.30;99.90;;;;;;4974817;28;20038;-86
2021/12/18 00:57:00;;;;;;;9.05;4.20;;;9.30;99.90;;;;;;4975389;28;20031;-86
2021/12/18 00:59:26;;;;;;;8.75;4.72;;;9.30;99.90;;;;;;4955228;28;20521;-86
2021/12/18 01:01:52;;;;;;;9.82;4.55;;;9.30;99.90;;;;;;4974061;28;20113;-87
2021/12/18 01:04:18;;;;;;;9.18;4.40;;;9.30;99.90;;;;;;4974922;28;20090;-86
2021/12/18 01:06:44;;;;;;;5.75;3.28;;;9.30;99.90;;;;;;4957628;28;20034;-87
2021/12/18 01:09:10;;;;;;;5.97;3.28;;;9.30;99.90;;;;;;4974779;28;20054;-85
2021/12/18 01:11:44;;;;;;;8.98;3.83;;;9.30;99.90;;;;;;4974628;28;20118;-88
2021/12/18 01:14:31;;;;;;;9.38;3.55;;;9.20;99.90;;;;;;4975349;28;20026;-88
2021/12/18 01:24:59;;;;;;;7.57;3.75;;;9.20;99.90;;;;;;4974491;28;20065;-86
2021/12/18 01:27:25;;;;;;;9.27;3.65;;;9.20;99.90;;;;;;4957493;28;20451;-86
2021/12/18 01:29:51;;;;;;;5.00;2.70;;;9.30;99.90;;;;;;4974861;28;20073;-87
2021/12/18 01:32:17;;;;;;;7.45;3.50;;;9.20;99.90;;;;;;4956739;28;20049;-88
2021/12/18 01:34:43;;;;;;;9.30;4.50;;;9.20;99.90;;;;;;4956007;28;20368;-86
2021/12/18 01:37:09;;;;;;;9.18;4.32;;;9.20;99.90;;;;;;4974022;28;20073;-86
2021/12/18 01:39:34;;;;;;;5.07;2.72;;;9.30;99.90;;;;;;4969476;28;20441;-86
2021/12/18 01:52:40;;;;;;;10.82;3.97;;;9.30;99.90;;;;;;4965097;28;20046;-87
2021/12/18 01:55:08;;;;;;;5.97;3.00;;;9.20;99.90;;;;;;4957771;28;20110;-87
2021/12/18 01:57:33;;;;;;;5.20;3.07;;;9.20;99.90;;;;;;4973641;28;20037;-86
2021/12/18 02:00:01;;;;;;;5.63;2.63;;;9.20;99.90;;;;;;4974709;28;20034;-88
2021/12/18 02:02:27;;;;;;;4.97;2.53;;;9.20;99.90;;;;;;4973267;28;20027;-87
2021/12/18 02:04:52;;;;;;;4.50;2.20;;;9.20;99.90;;;;;;4973721;28;20407;-87
2021/12/18 02:07:18;;;;;;;2.83;2.13;;;9.30;99.90;;;;;;4973395;28;20033;-85
2021/12/18 02:10:02;;;;;;;4.30;2.60;;;9.40;99.90;;;;;;4974151;28;20510;-87
2021/12/18 02:12:41;;;;;;;6.63;2.88;;;9.40;99.90;;;;;;4965091;28;20483;-86
2021/12/18 02:20:58;;;;;;;5.10;2.80;;;9.30;99.90;;;;;;4973091;28;20074;-86
2021/12/18 02:23:23;;;;;;;6.35;2.92;;;9.30;99.90;;;;;;4956397;28;20042;-87
2021/12/18 02:25:50;;;;;;;7.00;3.70;;;9.30;99.90;;;;;;4954126;28;20066;-88
2021/12/18 02:28:22;;;;;;;6.85;3.05;;;9.30;99.90;;;;;;4956906;28;20555;-87
2021/12/18 02:30:49;;;;;;;6.53;3.28;;;9.40;99.90;;;;;;4962595;28;20073;-79
2021/12/18 02:33:15;;;;;;;6.40;3.67;;;9.30;99.90;;;;;;4990230;28;20045;-85
2021/12/18 02:35:47;;;;;;;8.93;3.65;;;9.30;99.90;;;;;;4980278;28;20408;-81
2021/12/18 02:38:43;;;;;;;7.85;3.92;;;9.30;99.90;;;;;;4971102;28;20046;-83
2021/12/18 02:41:22;;;;;;;6.30;3.28;;;9.30;99.90;;;;;;4968398;28;20592;-83
2021/12/18 02:43:48;;;;;;;7.38;3.20;;;9.20;99.90;;;;;;4957396;28;20469;-82
2021/12/18 02:46:19;;;;;;;7.15;3.67;;;9.20;99.90;;;;;;4974000;28;20109;-82
2021/12/18 02:48:47;;;;;;;5.45;3.10;;;9.10;99.90;;;;;;4973296;28;20037;-83
2021/12/18 02:51:13;;;;;;;7.35;3.30;;;9.10;99.90;;;;;;4957783;28;20542;-82
2021/12/18 02:53:43;;;;;;;8.88;4.03;;;9.10;99.90;;;;;;4957164;28;20027;-83
2021/12/18 02:56:14;;;;;;;7.90;3.90;;;9.10;99.90;;;;;;4975337;28;20074;-83
2021/12/18 02:58:42;;;;;;;6.82;3.40;;;9.10;99.90;;;;;;4956065;28;20042;-82
2021/12/18 03:01:10;;;;;;;5.90;2.83;;;9.10;99.90;;;;;;4957685;28;20074;-82
2021/12/18 03:03:39;;;;;;;6.90;3.25;;;9.00;99.90;;;;;;4958061;28;20516;-84
2021/12/18 03:25:02;;;;;;;8.45;3.90;;;9.00;99.90;;;;;;4977895;28;20033;-83
2021/12/18 03:27:28;;;;;;;12.93;3.55;;;9.00;99.90;;;;;;4958297;28;20047;-82
2021/12/18 03:29:55;;;;;;;6.30;3.13;;;8.90;99.90;;;;;;4960359;28;20555;-82
2021/12/18 03:32:21;;;;;;;8.32;4.13;;;9.00;99.90;;;;;;4959412;28;20027;-82
2021/12/18 03:34:47;;;;;;;8.63;3.70;;;9.00;99.90;;;;;;4976924;28;20027;-82
2021/12/18 03:37:13;;;;;;;7.93;3.50;;;8.90;99.90;;;;;;4976053;28;20499;-82
2021/12/18 03:39:39;;;;;;;6.50;3.30;;;8.90;99.90;;;;;;4956411;28;20081;-82
2021/12/18 03:42:08;;;;;;;9.20;4.10;;;8.90;99.90;;;;;;4973710;28;20043;-82
2021/12/18 03:44:34;;;;;;;7.80;3.55;;;8.80;99.90;;;;;;4959892;28;20053;-82
2021/12/18 03:47:01;;;;;;;9.90;3.45;;;8.80;99.90;;;;;;4959331;28;20035;-82
2021/12/18 03:49:26;;;;;;;9.77;3.85;;;8.80;99.90;;;;;;4950054;29;20124;-82
2021/12/18 03:51:52;;;;;;;8.57;3.25;;;8.90;99.90;;;;;;4944620;28;20138;-82
2021/12/18 03:54:18;;;;;;;7.38;3.70;;;8.80;99.90;;;;;;4959235;28;20530;-82
2021/12/18 03:56:43;;;;;;;7.13;3.13;;;8.80;99.90;;;;;;4984082;28;20590;-82
2021/12/18 03:59:09;;;;;;;7.88;3.35;;;8.80;99.90;;;;;;4959497;28;20049;-82
2021/12/18 04:01:35;;;;;;;6.43;3.00;;;8.80;99.90;;;;;;4971396;28;20030;-82
2021/12/18 04:04:01;;;;;;;7.35;3.42;;;8.80;99.90;;;;;;4982326;28;20038;-82
2021/12/18 04:06:28;;;;;;;8.13;3.42;;;8.80;99.90;;;;;;4963094;28;20514;-82
2021/12/18 04:08:54;;;;;;;12.38;3.63;;;8.70;99.90;;;;;;4974425;28;20043;-82
2021/12/18 04:11:20;;;;;;;10.10;3.60;;;8.60;99.90;;;;;;4955917;28;20422;-82
2021/12/18 04:13:47;;;;;;;8.95;3.10;;;8.50;99.90;;;;;;4984821;28;20014;-83
2021/12/18 04:16:14;;;;;;;7.43;3.35;;;8.50;99.90;;;;;;4978345;28;20051;-83
2021/12/18 04:18:40;;;;;;;6.43;3.60;;;8.50;99.90;;;;;;4971104;28;20042;-82
2021/12/18 04:21:07;;;;;;;8.02;3.28;;;8.50;99.90;;;;;;4990700;28;20026;-84
2021/12/18 04:23:33;;;;;;;6.18;2.90;;;8.40;99.90;;;;;;4957084;28;20095;-83
2021/12/18 04:25:59;;;;;;;7.40;2.83;;;8.40;99.90;;;;;;4958194;28;20067;-83
2021/12/18 04:28:25;;;;;;;5.88;2.65;;;8.40;99.90;;;;;;4958218;28;20066;-82
2021/12/18 04:30:52;;;;;;;5.78;2.78;;;8.40;99.90;;;;;;4984372;28;20049;-82
2021/12/18 04:33:18;;;;;;;5.13;2.35;;;8.40;99.90;;;;;;4975042;28;20025;-82
2021/12/18 04:35:44;;;;;;;5.10;2.33;;;8.50;99.90;;;;;;4958547;28;20113;-82
2021/12/18 04:38:09;;;;;;;6.95;2.47;;;8.40;99.90;;;;;;4975793;28;20062;-82
2021/12/18 04:40:35;;;;;;;6.65;2.72;;;8.50;99.90;;;;;;4957183;28;20117;-82
2021/12/18 04:43:03;;;;;;;4.25;2.45;;;8.40;99.90;;;;;;4958433;28;20035;-82
2021/12/18 04:45:29;;;;;;;3.28;1.75;;;8.50;99.90;;;;;;4958292;28;20053;-82
2021/12/18 04:47:56;;;;;;;7.97;2.55;;;8.50;99.90;;;;;;4954889;28;20134;-82
2021/12/18 04:50:23;;;;;;;5.72;2.20;;;8.50;99.90;;;;;;4972052;28;20027;-83
2021/12/18 04:52:49;;;;;;;5.60;2.47;;;8.40;99.90;;;;;;4958067;28;20376;-83
2021/12/18 04:55:18;;;;;;;8.52;2.55;;;8.40;99.90;;;;;;4975611;28;20029;-82
2021/12/18 04:57:43;;;;;;;3.25;1.73;;;8.40;99.90;;;;;;4957958;28;20042;-82
2021/12/18 05:00:12;;;;;;;4.22;1.95;;;8.40;99.90;;;;;;4975269;28;20089;-83
2021/12/18 05:02:42;;;;;;;3.45;1.73;;;8.40;99.90;;;;;;4957892;28;20018;-83
2021/12/18 05:05:09;;;;;;;7.95;1.73;;;8.30;99.90;;;;;;4958083;28;20026;-82
2021/12/18 05:07:35;;;;;;;4.78;1.95;;;8.30;99.90;;;;;;4957925;28;20046;-82
2021/12/18 05:10:03;;;;;;;3.15;1.50;;;8.30;99.90;;;;;;4958419;28;20448;-83
2021/12/18 05:12:28;;;;;;;5.20;1.70;;;8.20;99.90;;;;;;4975563;28;20014;-83
2021/12/18 05:14:54;;;;;;;3.47;1.73;;;8.30;99.90;;;;;;4975804;28;20278;-82
2021/12/18 05:17:19;;;;;;;4.47;2.05;;;8.20;99.90;;;;;;4964872;28;20023;-82
2021/12/18 05:19:45;;;;;;;4.70;2.20;;;8.20;99.90;;;;;;4969868;28;20042;-82
2021/12/18 05:22:11;;;;;;;4.25;1.67;;;8.10;99.90;;;;;;4976988;28;20007;-83
2021/12/18 05:24:36;;;;;;;4.30;1.65;;;8.20;99.90;;;;;;4960558;28;20060;-82
2021/12/18 05:27:03;;;;;;;1.92;1.38;;;8.20;99.90;;;;;;4977201;28;20027;-83
2021/12/18 05:29:28;;;;;;;4.43;2.00;;;8.20;99.90;;;;;;4960823;28;20042;-82
2021/12/18 05:31:55;;;;;;;2.17;1.30;;;8.20;99.90;;;;;;4989409;28;20049;-82
2021/12/18 05:34:23;;;;;;;4.35;1.27;;;8.20;99.90;;;;;;4999264;28;20065;-82
2021/12/18 05:39:25;;;;;;;4.72;1.70;;;8.10;99.90;;;;;;5005867;28;20050;-82
2021/12/18 05:41:52;;;;;;;2.42;1.30;;;8.10;99.90;;;;;;4999210;28;20022;-82
2021/12/18 05:44:19;;;;;;;7.50;1.63;;;8.00;99.90;;;;;;5008765;28;20057;-82
2021/12/18 05:46:46;;;;;;;4.50;1.52;;;7.90;99.90;;;;;;4999779;28;20057;-83
2021/12/18 05:49:12;;;;;;;1.58;1.13;;;8.00;99.90;;;;;;4993473;28;20070;-83
2021/12/18 05:51:38;;;;;;;3.33;1.65;;;8.00;99.90;;;;;;4999796;28;20027;-83
2021/12/18 05:54:04;;;;;;;2.63;1.33;;;8.00;99.90;;;;;;4986567;28;20031;-83
2021/12/18 05:56:30;;;;;;;6.07;1.23;;;8.00;99.90;;;;;;4980093;28;20023;-83
2021/12/18 05:58:56;;;;;;;3.55;1.83;;;8.00;99.90;;;;;;4980517;28;20078;-83
2021/12/18 06:01:22;;;;;;;5.47;1.52;;;7.80;99.90;;;;;;4999532;28;20038;-82
2021/12/18 06:03:48;;;;;;;6.10;1.98;;;7.80;99.90;;;;;;4982584;28;20027;-83
2021/12/18 06:06:26;;;;;;;;;;;;;;;;;;;;;
2021/12/18 06:09:04;;;;;;;4.55;1.90;;;7.80;99.90;;;;;;5020916;23;20050;-83
2021/12/18 06:11:31;;;;;;;1.98;1.10;;;7.70;99.90;;;;;;4982720;28;20018;-82
2021/12/18 06:13:57;;;;;;;2.03;1.02;;;7.70;99.90;;;;;;4981849;28;20094;-84
2021/12/18 06:16:22;;;;;;;2.25;1.40;;;7.70;99.90;;;;;;4996961;28;20049;-83
2021/12/18 06:18:50;;;;;;;2.00;0.98;;;7.70;99.90;;;;;;4982466;28;20023;-83
2021/12/18 06:21:18;;;;;;;7.93;1.20;;;7.70;99.90;;;;;;4983012;28;20023;-82
2021/12/18 06:23:48;;;;;;;1.35;0.77;;;7.70;99.90;;;;;;4999128;28;20039;-83
2021/12/18 06:26:15;;;;;;;3.25;1.15;;;7.50;99.90;;;;;;4982478;28;20019;-84
2021/12/18 06:28:41;;;;;;;1.17;0.68;;;7.40;99.90;;;;;;4969721;28;20031;-84
2021/12/18 06:31:07;;;;;;;2.40;1.35;;;7.40;99.90;;;;;;4963396;29;20039;-82
2021/12/18 06:33:33;;;;;;;3.40;1.65;;;7.40;99.90;;;;;;4980143;28;20051;-83
2021/12/18 06:35:59;;;;;;;4.38;1.30;;;7.40;99.90;;;;;;4979911;28;20031;-83
2021/12/18 06:38:24;;;;;;;1.70;1.23;;;7.50;99.90;;;;;;4963296;28;20016;-82
2021/12/18 06:40:50;;;;;;;2.15;1.60;;;7.40;99.90;;;;;;4963098;28;20008;-83
2021/12/18 06:43:17;;;;;;;5.82;1.38;;;7.40;99.90;;;;;;4997788;28;20011;-83
2021/12/18 06:45:43;;;;;;;2.65;1.48;;;7.40;99.90;;;;;;4982316;28;20124;-83
2021/12/18 06:48:08;;;;;;;3.70;0.90;;;7.30;99.90;;;;;;4981637;28;20054;-83
2021/12/18 06:50:35;;;;;;;2.65;1.00;;;7.30;99.90;;;;;;4998869;28;20007;-83
2021/12/18 06:53:02;;;;;;;1.80;1.23;;;7.20;99.90;;;;;;4997686;28;20019;-82
2021/12/18 06:55:29;;;;;;;1.23;1.02;;;7.20;99.90;;;;;;5000583;28;20050;-81
2021/12/18 06:57:55;;;;;;;10.15;1.30;;;7.20;99.90;;;;;;5001424;28;20094;-82
2021/12/18 07:00:22;;;;;;;1.63;0.98;;;7.20;99.90;;;;;;5001577;28;20019;-83
2021/12/18 07:02:48;;;;;;;1.13;1.00;;;7.10;99.90;;;;;;4977392;28;20031;-82
2021/12/18 07:05:15;;;;;;;2.25;1.55;;;7.00;99.90;;;;;;4982880;28;20102;-83
2021/12/18 07:07:41;;;;;;;10.00;1.30;;;7.00;99.90;;;;;;4996219;28;20491;-83
2021/12/18 07:10:10;;;;;;;4.30;1.13;;;6.90;99.90;;;;;;4967270;28;20081;-83
2021/12/18 07:12:36;;;;;;;1.83;1.13;;;6.80;99.90;;;;;;4955240;29;20539;-83
2021/12/18 07:15:04;;;;;;;1.65;1.10;;;6.80;99.90;;;;;;4945194;29;20044;-83
2021/12/18 07:17:30;;;;;;;1.13;0.95;;;6.90;99.90;;;;;;4950669;29;20031;-83
2021/12/18 07:19:55;;;;;;;7.68;0.80;;;6.90;99.90;;;;;;4949086;28;20057;-81
2021/12/18 07:22:21;;;;;;;1.13;1.02;;;7.00;99.90;;;;;;4967890;28;20043;-84
2021/12/18 07:24:47;;;;;;;1.70;0.98;;;7.00;99.90;;;;;;4940473;29;20055;-83
2021/12/18 07:27:13;;;;;;;3.78;1.33;;;7.00;99.90;;;;;;4940202;29;20122;-82
2021/12/18 07:29:38;;;;;;;5.60;1.13;;;7.00;99.90;;;;;;4922762;29;20023;-82
2021/12/18 07:32:04;;;;;;;3.75;1.20;;;6.90;99.90;;;;;;4926271;29;20128;-83
2021/12/18 07:34:30;;;;;;;1.80;1.00;;;6.80;99.90;;;;;;4942935;29;20040;-83
2021/12/18 07:36:57;;;;;;;3.08;1.52;;;6.80;99.90;;;;;;4958085;29;20395;-83
2021/12/18 07:39:23;;;;;;;1.35;1.02;;;6.80;99.90;;;;;;4958031;29;20039;-83
2021/12/18 07:41:48;;;;;;;1.75;1.33;;;6.80;99.90;;;;;;4956643;29;20029;-83
2021/12/18 07:44:14;;;;;;;2.53;1.38;;;6.80;99.90;;;;;;4938830;29;20039;-83
2021/12/18 07:46:40;;;;;;;3.88;1.38;;;6.80;99.90;;;;;;4936998;29;20039;-83
2021/12/18 07:49:08;;;;;;;7.32;1.38;;;6.80;99.90;;;;;;4921175;29;20028;-83
2021/12/18 07:51:34;;;;;;;2.22;1.27;;;6.70;99.90;;;;;;4938303;29;20032;-84
2021/12/18 07:54:00;;;;;;;6.05;1.33;;;6.70;99.90;;;;;;4951360;29;20471;-83
2021/12/18 07:56:26;;;;;;;1.90;1.40;;;6.70;99.90;;;;;;4957125;29;20031;-84
2021/12/18 07:58:53;;;;;;;1.92;1.50;;;6.70;99.90;;;;;;4957394;29;20028;-83
2021/12/18 08:01:20;;;;;;;5.32;1.42;;;6.70;99.90;;;;;;4955552;29;20054;-83
2021/12/18 08:03:45;;;;;;;2.97;1.90;;;6.70;99.90;;;;;;4955754;28;20051;-83
2021/12/18 08:06:11;;;;;;;2.67;1.23;;;6.70;99.90;;;;;;4956828;29;20061;-84
2021/12/18 08:08:37;;;;;;;2.08;1.10;;;6.70;99.90;;;;;;4939283;29;20043;-84
2021/12/18 08:11:03;;;;;;;3.13;1.58;;;6.80;99.90;;;;;;4956691;28;20027;-84
2021/12/18 08:13:29;;;;;;;1.95;1.23;;;6.80;99.90;;;;;;4961021;28;20479;-85
2021/12/18 08:15:56;;;;;;;2.90;1.23;;;6.80;99.90;;;;;;4940073;29;20094;-83
2021/12/18 08:18:22;;;;;;;3.03;1.00;;;6.80;99.90;;;;;;4939859;29;20036;-83
2021/12/18 08:20:48;;;;;;;1.90;1.17;;;6.90;99.90;;;;;;4956805;29;20086;-84
2021/12/18 08:23:14;;;;;;;1.23;0.80;;;7.00;99.90;;;;;;4946875;28;20019;-84
2021/12/18 08:25:40;;;;;;;1.80;1.17;;;7.00;99.90;;;;;;4951916;28;20547;-84
2021/12/18 08:28:06;;;;;;;2.78;0.98;;;7.00;99.90;;;;;;4937214;29;20072;-84
2021/12/18 08:30:34;;;;;;;1.05;0.80;;;6.90;99.90;;;;;;4953972;29;20054;-83
2021/12/18 08:33:00;;;;;;;3.65;1.30;;;6.90;99.90;;;;;;4950339;29;20030;-83
2021/12/18 08:35:30;;;;;;;1.00;0.70;;;6.90;99.90;;;;;;4955090;29;20038;-82
2021/12/18 08:37:57;;;;;;;1.88;0.60;;;6.90;99.90;;;;;;4956548;29;20031;-83
2021/12/18 08:40:23;;;;;;;2.20;1.27;;;6.90;99.90;;;;;;4923344;29;20066;-83
2021/12/18 08:42:49;;;;;;;5.22;1.42;;;6.80;99.90;;;;;;4937665;29;20038;-84
2021/12/18 08:45:15;;;;;;;6.90;1.50;;;6.60;99.90;;;;;;4948008;29;20091;-84
2021/12/18 08:47:41;;;;;;;2.95;0.93;;;6.70;99.90;;;;;;4956302;29;20090;-83
2021/12/18 08:50:10;;;;;;;1.90;1.13;;;6.80;99.90;;;;;;4939944;29;20124;-84
2021/12/18 08:52:36;;;;;;;3.75;1.33;;;6.80;99.90;;;;;;4958273;28;20062;-84
2021/12/18 08:55:04;;;;;;;2.83;1.13;;;6.70;99.90;;;;;;4958480;28;20030;-84
2021/12/18 08:57:29;;;;;;;2.25;0.80;;;6.80;99.90;;;;;;4957967;28;20118;-84
2021/12/18 08:59:55;;;;;;;1.95;1.23;;;6.70;99.90;;;;;;4947077;28;20457;-83
2021/12/18 09:02:21;;;;;;;2.17;1.10;;;6.80;99.90;;;;;;4937772;29;20401;-85
2021/12/18 09:04:47;;;;;;;2.35;0.93;;;6.80;99.90;;;;;;4919858;29;20043;-83
2021/12/18 09:07:13;;;;;;;5.88;1.10;;;6.90;99.90;;;;;;4937004;29;20087;-84
2021/12/18 09:09:42;;;;;;;2.53;1.27;;;6.90;99.90;;;;;;4918288;29;20044;-84
2021/12/18 09:12:11;;;;;;;1.05;0.75;;;6.80;99.90;;;;;;4937444;29;20028;-83
2021/12/18 09:14:38;;;;;;;2.00;0.90;;;6.80;99.90;;;;;;4935413;29;20039;-83
2021/12/18 09:17:04;;;;;;;1.20;0.70;;;6.90;99.90;;;;;;4923684;29;20038;-84
2021/12/18 09:19:30;;;;;;;1.10;0.57;;;6.90;99.90;;;;;;4936205;29;20490;-84
2021/12/18 09:21:56;;;;;;;1.00;0.70;;;7.00;99.90;;;;;;4938551;29;20034;-83
2021/12/18 09:24:21;;;;;;;0.93;0.88;;;7.00;99.90;;;;;;4958132;28;20364;-84
2021/12/18 09:26:48;;;;;;;1.35;1.13;;;7.00;99.90;;;;;;4958342;28;20094;-84
2021/12/18 09:31:58;;;;;;;3.38;1.15;;;7.00;99.90;;;;;;4953679;29;20387;-84
2021/12/18 09:34:27;;;;;;;6.53;1.58;;;7.10;99.90;;;;;;4961233;28;20030;-83
2021/12/18 09:36:52;;;;;;;1.60;0.98;;;7.20;99.90;;;;;;4940477;29;20047;-83
2021/12/18 09:39:19;;;;;;;1.00;0.60;;;7.20;99.90;;;;;;4938817;29;20043;-84
2021/12/18 09:41:48;;;;;;;1.63;0.98;;;7.20;99.90;;;;;;4954013;29;20082;-83
2021/12/18 09:44:14;;;;;;;2.45;1.23;;;7.20;99.90;;;;;;4939029;29;20027;-82
2021/12/18 09:46:41;;;;;;;2.85;0.95;;;7.20;99.90;;;;;;4951508;28;20179;-83
2021/12/18 09:49:09;;;;;;;1.83;1.20;;;7.20;99.90;;;;;;4956526;29;20086;-84
2021/12/18 09:51:37;;;;;;;1.70;1.17;;;7.30;99.90;;;;;;4933078;29;20023;-84
2021/12/18 09:54:03;;;;;;;1.95;1.20;;;7.20;99.90;;;;;;4952326;28;20434;-85
2021/12/18 09:56:31;;;;;;;1.40;0.88;;;7.10;99.90;;;;;;4940447;29;20028;-84
2021/12/18 09:58:57;;;;;;;2.72;1.45;;;7.10;99.90;;;;;;4939605;29;20452;-84
2021/12/18 10:01:23;;;;;;;1.85;0.88;;;7.10;99.90;;;;;;4956984;28;20031;-85
2021/12/18 10:03:52;;;;;;;9.48;1.33;;;7.20;99.90;;;;;;4946414;29;20119;-84
2021/12/18 10:06:44;;;;;;;7.53;0.90;;;7.20;99.90;;;;;;4953328;28;20031;-84
2021/12/18 10:09:29;;;;;;;1.85;0.80;;;7.20;99.90;;;;;;4937752;29;20436;-83
2021/12/18 10:12:01;;;;;;;3.00;1.02;;;7.20;99.90;;;;;;4955396;28;20089;-84
2021/12/18 10:14:40;;;;;;;6.40;0.68;;;7.10;99.90;;;;;;4955273;28;20098;-85
2021/12/18 10:17:25;;;;;;;1.35;1.05;;;7.00;99.90;;;;;;4962304;28;20051;-84
2021/12/18 10:19:55;;;;;;;1.95;1.45;;;7.00;99.90;;;;;;4937626;29;20101;-84
2021/12/18 10:22:20;;;;;;;5.32;1.10;;;6.90;99.90;;;;;;4955327;29;20070;-83
2021/12/18 10:25:01;;;;;;;1.27;1.02;;;6.80;99.90;;;;;;4958143;28;20122;-84
2021/12/18 10:27:26;;;;;;;2.90;1.23;;;6.80;99.90;;;;;;4959890;28;20031;-84
2021/12/18 10:29:54;;;;;;;3.35;1.50;;;6.90;99.90;;;;;;4960955;28;20091;-84
2021/12/18 10:32:23;;;;;;;;;;;7.00;99.90;;;;;;4938613;28;20043;-85
2021/12/18 10:34:54;;;;;;;3.15;1.70;;;7.10;99.90;;;;;;4960872;28;20434;-85
2021/12/18 10:37:27;;;;;;;3.80;1.65;;;7.20;99.90;;;;;;4942278;29;20528;-85
2021/12/18 10:39:53;;;;;;;1.45;1.00;;;7.30;99.90;;;;;;4958877;28;20035;-86
2021/12/18 10:42:25;;;;;;;1.80;1.10;;;7.20;99.90;;;;;;4941458;29;20039;-84
2021/12/18 10:45:17;;;;;;;3.35;1.05;;;7.30;99.90;;;;;;4941834;29;20031;-86
2021/12/18 10:47:56;;;;;;;2.33;0.80;;;7.30;99.90;;;;;;4924630;28;20039;-85
2021/12/18 10:50:50;;;;;;;2.03;1.73;;;7.30;99.90;;;;;;4960379;28;20389;-84
2021/12/18 10:53:25;;;;;;;1.45;1.30;;;7.30;99.90;;;;;;4951082;28;20035;-85
2021/12/18 10:55:53;;;;;;;2.67;1.27;;;7.30;99.90;;;;;;4941840;29;20077;-85
2021/12/18 10:58:24;;;;;;;;;;;7.40;99.90;;;;;;4959363;28;20106;-84
2021/12/18 11:00:55;;;;;;;1.65;1.20;;;7.30;99.90;;;;;;4969927;28;19910;-84
2021/12/18 11:03:27;;;;;;;1.05;0.70;;;7.30;99.90;;;;;;4942980;28;20043;-85
2021/12/18 11:06:17;;;;;;;0.50;0.50;;;7.20;99.90;;;;;;4932676;29;20551;-85
2021/12/18 11:09:12;;;;;;;0.88;0.88;;;7.10;99.90;;;;;;4950972;28;20035;-84
2021/12/18 11:14:11;;;;;;;1.77;1.05;;;7.30;99.90;;;;;;4950905;29;20380;-84
2021/12/18 11:16:39;;;;;;;0.73;0.70;;;7.30;99.90;;;;;;4935522;29;20039;-85
2021/12/18 11:19:08;;;;;;;0.88;0.77;;;7.30;99.90;;;;;;4954875;29;20031;-84
2021/12/18 11:21:34;;;;;;;1.50;0.68;;;7.30;99.90;;;;;;4946119;28;20042;-84
2021/12/18 11:24:05;;;;;;;1.33;0.95;;;7.40;99.90;;;;;;4950414;29;20434;-84
2021/12/18 11:26:53;;;;;;;2.88;0.93;;;7.30;99.90;;;;;;4957393;28;20035;-84
2021/12/18 11:29:26;;;;;;;1.65;0.90;;;7.30;99.90;;;;;;4927714;29;20039;-83
2021/12/18 11:31:52;;;;;;;1.60;0.88;;;7.30;99.90;;;;;;4936351;29;20043;-83
2021/12/18 11:34:19;;;;;;;1.25;1.15;;;7.40;99.90;;;;;;4958140;28;20032;-84
2021/12/18 11:36:47;;;;;;;1.10;0.93;;;7.40;99.90;;;;;;4958443;28;20023;-84
2021/12/18 11:39:14;;;;;;;;;;;7.30;99.90;;;;;;4957523;28;20380;-85
2021/12/18 11:41:40;;;;;;;0.93;0.87;;;7.40;99.90;;;;;;4973828;28;19910;-83
2021/12/18 11:44:26;;;;;;;1.52;0.73;;;7.40;99.90;;;;;;4940184;29;20369;-83
2021/12/18 11:46:52;;;;;;;0.82;0.70;;;7.40;99.90;;;;;;4941591;29;20043;-84
2021/12/18 11:49:20;;;;;;;2.88;1.00;;;7.40;99.90;;;;;;4950951;29;20035;-85
2021/12/18 11:52:04;;;;;;;1.48;0.90;;;7.40;99.90;;;;;;4958858;28;20042;-84
2021/12/18 11:54:49;;;;;;;1.23;1.13;;;7.50;99.90;;;;;;4940208;29;20035;-84
2021/12/18 11:57:40;;;;;;;1.27;0.85;;;7.60;99.90;;;;;;4958976;28;20502;-82
2021/12/18 12:00:17;;;;;;;0.88;0.70;;;7.60;99.90;;;;;;4937718;29;20035;-84
2021/12/18 12:02:48;;;;;;;0.83;0.70;;;7.60;99.90;;;;;;4959032;28;20027;-84
2021/12/18 12:05:17;;;;;;;1.30;0.75;;;7.70;99.90;;;;;;4958726;28;20031;-85
2021/12/18 12:07:44;;;;;;;0.40;0.40;;;7.60;99.90;;;;;;4940595;29;20499;-84
2021/12/18 12:10:21;;;;;;;0.63;0.60;;;7.60;99.90;;;;;;4939882;29;20516;-84
2021/12/18 12:12:56;;;;;;;0.80;0.40;;;7.50;99.90;;;;;;4940568;29;20039;-82
2021/12/18 12:15:24;;;;;;;0.68;0.60;;;7.50;99.90;;;;;;4959126;28;20051;-84
2021/12/18 12:18:03;;;;;;;1.27;0.70;;;7.60;99.90;;;;;;4953952;29;20023;-84
2021/12/18 12:20:46;;;;;;;0.90;0.70;;;7.60;99.90;;;;;;4950642;29;20070;-84
2021/12/18 12:23:14;;;;;;;2.38;0.70;;;7.70;99.90;;;;;;4940127;29;20533;-83
2021/12/18 12:25:50;;;;;;;1.23;0.60;;;7.70;99.90;;;;;;4956753;28;20027;-84
2021/12/18 12:28:25;;;;;;;1.15;0.70;;;7.70;99.90;;;;;;4956845;28;20035;-85
2021/12/18 12:30:59;;;;;;;1.08;0.68;;;7.80;99.90;;;;;;4950152;28;20026;-83
2021/12/18 12:33:29;;;;;;;1.63;1.02;;;7.80;99.90;;;;;;4927857;29;20530;-84
2021/12/18 12:36:04;;;;;;;1.23;0.90;;;7.80;99.90;;;;;;4933792;29;20035;-83
2021/12/18 12:38:57;;;;;;;2.90;1.83;;;7.70;99.90;;;;;;4931735;29;20039;-84
2021/12/18 12:41:24;;;;;;;3.90;0.93;;;7.60;99.90;;;;;;4927996;29;20027;-84
2021/12/18 12:43:54;;;;;;;2.03;1.40;;;7.60;99.90;;;;;;4950327;28;20027;-85
2021/12/18 12:46:20;;;;;;;2.45;1.17;;;7.60;99.90;;;;;;4927356;29;20162;-80
2021/12/18 12:49:09;;;;;;;0.85;0.82;;;7.70;99.90;;;;;;4948190;28;20039;-83
2021/12/18 12:52:00;;;;;;;1.02;0.93;;;7.70;99.90;;;;;;4953061;28;20023;-81
2021/12/18 12:54:57;;;;;;;2.53;1.60;;;7.80;99.90;;;;;;4937233;29;20039;-82
2021/12/18 12:57:23;;;;;;;0.93;0.82;;;7.70;99.90;;;;;;4950908;28;20050;-83
2021/12/18 13:00:24;;;;;;;1.70;1.10;;;7.70;99.90;;;;;;4935109;29;20521;-84
2021/12/18 13:02:54;;;;;;;0.82;0.70;;;7.70;99.90;;;;;;4926491;28;20564;-81
2021/12/18 13:05:21;;;;;;;1.13;0.93;;;7.70;99.90;;;;;;4958705;28;20085;-84
2021/12/18 13:07:48;;;;;;;3.13;1.50;;;7.80;99.90;;;;;;4950809;28;20046;-83
2021/12/18 13:10:27;;;;;;;0.70;0.70;;;7.80;99.90;;;;;;4957529;28;20043;-83
2021/12/18 13:13:07;;;;;;;1.17;1.13;;;7.80;99.90;;;;;;4940824;29;20035;-85
2021/12/18 13:15:54;;;;;;;1.90;1.10;;;7.80;99.90;;;;;;4958229;28;20034;-83
2021/12/18 13:18:30;;;;;;;;;;;7.80;99.90;;;;;;4941825;28;20246;-83
2021/12/18 13:21:03;;;;;;;1.20;1.00;;;7.70;99.90;;;;;;4958889;29;19911;-84
2021/12/18 13:23:38;;;;;;;1.77;0.90;;;7.60;99.90;;;;;;4956614;28;20039;-81
2021/12/18 13:26:16;;;;;;;1.80;1.00;;;7.70;99.90;;;;;;4958260;29;20495;-85
2021/12/18 13:28:47;;;;;;;1.63;1.38;;;7.80;99.90;;;;;;4955562;28;20023;-85
2021/12/18 13:31:13;;;;;;;5.47;1.40;;;7.80;99.90;;;;;;4958437;29;20034;-84
2021/12/18 13:33:39;;;;;;;3.53;1.20;;;7.80;99.90;;;;;;4941453;29;20035;-83
2021/12/18 13:36:05;;;;;;;1.20;0.90;;;7.80;99.90;;;;;;4956870;28;20027;-83
2021/12/18 13:38:36;;;;;;;1.60;0.88;;;7.80;99.90;;;;;;4957903;28;20019;-83
2021/12/18 13:41:08;;;;;;;1.98;1.15;;;7.90;99.90;;;;;;4939251;29;20324;-83
2021/12/18 13:43:33;;;;;;;1.77;1.05;;;8.00;99.90;;;;;;4958211;29;20051;-82
2021/12/18 13:46:08;;;;;;;1.25;1.00;;;8.00;99.90;;;;;;4953462;29;20032;-81
2021/12/18 13:48:44;;;;;;;1.20;1.05;;;8.00;99.90;;;;;;4953243;28;20019;-82
2021/12/18 13:51:13;;;;;;;1.98;1.02;;;7.90;99.90;;;;;;4941557;29;20126;-84
2021/12/18 13:54:01;;;;;;;3.33;0.68;;;7.90;99.90;;;;;;4960134;28;20031;-83
2021/12/18 13:56:30;;;;;;;2.22;1.45;;;7.90;99.90;;;;;;4942014;29;20031;-83
2021/12/18 13:58:57;;;;;;;1.15;0.95;;;7.90;99.90;;;;;;4958044;28;20027;-83
2021/12/18 14:01:29;;;;;;;0.68;0.65;;;7.90;99.90;;;;;;4941410;28;20149;-84